Airfield :
LOGIN :

Register | Disclaimer

   EN    FR    IT 

 










Legend :    VFR   Marginal VFR   IFR   Intensive IFR   Very Intensive IFR
Visi :
Ceiling :
>= 8 km
>= 3000ft
5 to 8 km
1000 to 3000 ft
1500m to 5 km
500 to 1000 ft
800 to 1500m
200 to 500 ft
< 800m
< 200 ft
Symbols :   Thunderstorms  Fog  Heavy snow  Heavy precipitations  Wind > 20 kt
SIGMETs :     Misc.  Thunderstorms  Icing  Turbulence  Mountain Waves  Volcanic Ashes






- Airport Elevation : 1989 ft
- IATA code : KLV


LKKV - Karlovy Vary

CURRENT METAR :
  • 251700Z 30004KT 0500 R29/0700D FZFG VV002 M02/M02 Q1020

EXPIRED METARs :
  • 251630Z 26005KT 230V290 0600 R29/0800D FZFG VV002 M02/M02 Q1020
  • 251600Z 27004KT 0600 R29/0800 FZFG VV002 M02/M02 Q1020
  • 251530Z 26004KT 230V290 0600 R29/0700 FZFG SCT002 OVC004 M02/M02 Q1019
  • 251500Z 28003KT 230V320 0600 R29/1000D FZFG SCT002 OVC004 M02/M02 Q1019
  • 251436Z 28004KT 230V330 0600 R29/0600N FZFG VV002 M02/M02 Q1020 RMK REG QNH 1018
  • 251430Z 27004KT 220V310 0400 R29/0550 FZFG VV002 M02/M02 Q1019

TAF TAF LKKV
Valid from the 25 at 12:00 until the 26 at 18:00 UTC


251100Z 2512/2618 VRB02KT 0200 FZFG OVC002
PROB30
TEMPO 2512/2515 0700 FZFG OVC004
BECMG 2515/2518 3000 BR SCT007 BKN013
BECMG 2600/2603 1200 BR SCT005 BKN010
BECMG 2603/2605 1200 BR BKN005
PROB30
TEMPO 2605/2609 0600 FZFG BKN003



MET'MAP, your aeronautical weather chart ! - Copyright ORBIFLY December 2007 - Disclaimer

ORBIFLY MET'MAP TEAM :

Programming & Development : Alexandra Zaïnal
Concept & original design : Baudouin d'Aumeries
Assistance for programming : Marc-Olivier Méhu
Technical & hardware support : Manuel Goepfert

Contact : metmap@orbifly.com




SOURCES & CREDITS :

   NOAA